Marcin Glik

Olheiro-Chefe - Pogon
4 Jun 2028
Domingo
Processo

Personalidade

Adaptabilidade (18) Ambição (13) Controvérsia (17) Lealdade (4) Pressão (7) Profissionalismo (13) Espírito Esportivo (6) Temperamento (15)

Perfil

Estilo de Treinamento Democrático
Licença Nacional B
Determinação 9
Gestão de Pessoas 10
Motivação 5
Disciplina 6
Satisfação no Trabalho
100%
Fadiga
0%
Função Olheiro-Chefe
Salário 36.1K p/s
Contrato 14.03.2029

Desempenho

Comportamento Bom
Eficácia do Treinamento
36%
Desenvolvimento do Jogador
35%
Prevenção de Lesões
20%
Implementação Tática
30%

Eventos Recentes

Avaliou um jogador agora
Avaliou um jogador agora
Aniversário 14d atrás

Monitorando agora

63
Jogador Clube Status Habilidade Confiança Observado Última observação Último voto
Rafael Vargas Cortulua Ativo 104 / 102 40% 2 02.06.2028 -
Thamsanqa Phiri Free State Stars Ativo 68 / 80 40% 1 02.06.2028 -
Jens Mathijsen Willem II Ativo 125 / 114 40% 3 01.06.2028 -
Ajdin Hasić Gornik Leczna Ativo 130 / 125 55% 1 01.06.2028 -
Jakub Adkonis Korona Ativo 108 / 110 40% 1 01.06.2028 -
Dmitry Shopin Spartak Moscow Ativo 76 / 88 40% 1 25.01.2028 -
Drew Baiera New York City Ativo 80 / 99 40% 1 10.01.2028 -
Dilan Villarreal Junior Ativo 97 / 96 40% 1 10.01.2028 -
Jaydee Canvot Crystal Palace Ativo 145 / 149 40% 1 06.01.2028 -
Vimal Yoganathan Barnsley Ativo 120 / 112 40% 1 05.01.2028 -
Matvey Bardachev Zenit Ativo 114 / 117 40% 2 04.01.2028 -
Aytor Herrera Atletico Venezuela Ativo 92 / 94 40% 1 04.01.2028 -
Philipp Maybach Austria Wien Ativo 123 / 115 40% 1 03.01.2028 -
Martim Cunha Porto Ativo 125 / 113 40% 1 02.01.2028 -
Donis Avdijaj Getafe Ativo 117 / 117 66% 1 01.01.2028 Aprovar
Andile Zwane Rosario Central Ativo 124 / 124 67% 1 01.01.2028 Aprovar
Jon Esenga IF Elfsborg Ativo 93 / 97 40% 1 01.01.2028 -
Ethan Williams Peterborough United Ativo 108 / 130 40% 3 26.07.2027 -
Rayan Bournemouth Ativo 157 / 147 40% 1 26.07.2027 -
Jay Robinson Southampton Ativo 119 / 130 40% 2 12.07.2027 -
Mohamadou Kanté West Ham United Ativo 108 / 119 40% 1 12.07.2027 -
Morgan Manyama SuperSport United Ativo 130 / 130 40% 1 06.07.2027 -
Abubakar Garba Nasarawa United Ativo 102 / 87 40% 1 04.07.2027 -
Gorka Gorosabel Real Sociedad Ativo 120 / 105 40% 1 04.07.2027 -
Oscar Schwartau Norwich City Ativo 143 / 133 40% 1 03.07.2027 -
Nestory Irankunda Watford Ativo 133 / 116 40% 1 03.07.2027 -
Ishmael Addo Heart of Lions Ativo 77 / 82 40% 1 02.07.2027 -
Otto Stange Hamburger SV Ativo 135 / 128 40% 1 01.07.2027 -
Riley Owen Bristol Rovers Ativo 108 / 119 40% 2 21.06.2027 -
Slobodan Rubežić Korona Ativo 94 / 104 48% 1 21.06.2027 -
Teo Rodríguez Pagano San Lorenzo Ativo 109 / 122 40% 1 21.06.2027 -
Daniel Banjaqui Benfica Ativo 125 / 114 40% 1 01.06.2027 -
Joe Knight Stevenage Ativo 103 / 110 40% 1 01.06.2027 -
Tiago Freitas Benfica Ativo 130 / 107 40% 1 27.01.2027 Mais informações
Edwin Asamoah Berekum Chelsea Ativo 103 / 78 40% 1 26.01.2027 Mais informações
Claudio Parlato Audace Cerignola Ativo 111 / 100 40% 1 24.01.2027 -
Taras Mykhavko Dynamo Kyiv Ativo 123 / 130 40% 1 23.01.2027 -
Afriyie Sulemana Hasaacas Ativo 72 / 90 40% 1 23.01.2027 -
Mauricio Amaro Atlanta United FC Ativo 102 / 135 40% 1 19.01.2027 -
José Álvarez Arsenal Tula Ativo 120 / 119 40% 1 14.01.2027 -
Ioannis Pittas CSKA Sofia Ativo 138 / 116 40% 1 14.01.2027 -
Arjan Malić Sturm Graz Ativo 133 / 126 40% 3 13.01.2027 -
Brian White Queens Park Rangers Ativo 122 / 111 40% 1 13.01.2027 -
Samuel Kalu Botev Plovdiv Ativo 135 / 115 40% 1 12.01.2027 -
Carlton Morris Derby County Ativo 143 / 132 40% 2 10.01.2027 -
Santiago Fernández Talleres Ativo 113 / 124 40% 1 10.01.2027 -
Daniel Vernattus Metalist Ativo 101 / 96 40% 1 09.01.2027 -
Giuseppe Sibilli Bari Ativo 140 / 124 40% 1 07.01.2027 -
Saël Kumbedi VfL Wolfsburg Ativo 151 / 130 40% 1 04.01.2027 -
James Dornelly Peterborough United Ativo 100 / 98 40% 1 03.01.2027 -
Patrik Kovács Fehervar Ativo 102 / 101 40% 1 03.01.2027 -
Lucas Richarte Kawasaki Frontale Ativo 105 / 100 40% 1 28.08.2026 -
Nahuel Herrera Porto Ativo 135 / 131 40% 1 26.08.2026 -
Francis Gomez Everton Ativo 82 / 111 40% 1 25.08.2026 -
Kacper Urbański Gornik Zabrze Ativo 125 / 137 40% 2 23.08.2026 -
Christopher Shaw Liverpool Ativo 105 / 111 40% 1 17.08.2026 -
Bartłomiej Smolarczyk Korona Ativo 89 / 106 44% 1 10.08.2026 -
Cristopher Rodríguez Estudiantes de Merida Ativo 106 / 109 40% 1 07.08.2026 -
Tomasz Makowski Zaglebie Ativo 93 / 101 40% 1 03.08.2026 -
Jorge Morel Cerro Porteno Ativo 113 / 124 40% 1 03.08.2026 -
Santiago González Tigre Ativo 138 / 131 40% 1 02.08.2026 -
Jherson Mosquera Newell's Old Boys Ativo 123 / 129 40% 1 02.08.2026 -
Fabricio Corbalán Gimnasia La Plata Ativo 112 / 118 40% 1 01.08.2026 -